Reading Center, New York
Current Conditions -  °F | °C
As of 3:53 PM on Sunday 23 Nov 2014 (Local Time) from KPEO Reporting Station
Broken Clouds Broken Clouds  
Wind Chill: 46°   Ceiling: 10000
Heat Index: 48°   Visibility: 10mi
Dew Point: 40°   Wind: 5mph
Humidity: 74%   Direction: 180°S
Pressure: 29.99"   Gusts: NA
Location:  42.43°N, 76.93°W
Report Text: KPEO 232053Z AUTO 18004KT 10SM BKN100 BKN110 09/04 A2999 RMK AO2 SLP159 60000 T00890044 56017
Loading
Personal Weather Stations






























Interactive Weather Map New forecast layout! Learn more

10-Day Weather Forecast

Advertisements
Track Severe Weather on mobile